createdAt,value
2022-08-22T00:02:20.831Z,99.90
2022-08-22T00:03:06.743Z,99.90
2022-08-22T00:03:08.634Z,99.90
2022-08-22T00:03:10.106Z,99.90
2022-08-22T00:06:03.455Z,99.90
2022-08-22T00:09:36.528Z,99.90
2022-08-22T00:12:51.108Z,99.90
2022-08-22T00:16:09.324Z,99.90
2022-08-22T00:19:40.550Z,99.90
2022-08-22T00:23:05.858Z,99.90
2022-08-22T00:26:45.115Z,99.90
2022-08-22T00:29:57.326Z,99.90
2022-08-22T00:33:23.119Z,99.90
2022-08-22T00:36:54.711Z,99.90
2022-08-22T00:40:29.947Z,99.90
2022-08-22T00:43:39.622Z,99.90
2022-08-22T00:47:16.066Z,99.90
2022-08-22T00:50:22.710Z,99.90
2022-08-22T00:54:01.575Z,99.90
2022-08-22T00:57:49.087Z,99.90
2022-08-22T01:01:00.732Z,99.90
2022-08-22T01:04:31.727Z,99.90
2022-08-22T01:07:55.898Z,99.90
2022-08-22T01:11:33.060Z,99.90
2022-08-22T01:14:51.971Z,99.90
2022-08-22T01:18:42.242Z,99.90
2022-08-22T01:22:42.097Z,99.90
2022-08-22T01:26:14.620Z,99.90
2022-08-22T01:29:58.514Z,99.90
2022-08-22T01:33:58.674Z,99.90
2022-08-22T01:37:43.791Z,99.90
2022-08-22T01:40:59.996Z,99.90
2022-08-22T01:44:42.442Z,99.90
2022-08-22T01:48:30.093Z,99.90
2022-08-22T01:51:49.580Z,99.90
2022-08-22T01:55:06.592Z,99.90
2022-08-22T01:58:23.403Z,99.90
2022-08-22T02:01:33.378Z,99.90
2022-08-22T02:04:47.393Z,99.90
2022-08-22T02:08:40.776Z,99.90
2022-08-22T02:11:55.985Z,99.90
2022-08-22T02:15:19.751Z,99.90
2022-08-22T02:18:39.318Z,99.90
2022-08-22T02:22:03.766Z,99.90
2022-08-22T02:25:30.414Z,99.90
2022-08-22T02:29:01.316Z,99.90
2022-08-22T02:32:42.040Z,99.90
2022-08-22T02:36:00.246Z,99.90
2022-08-22T02:39:34.206Z,99.90
2022-08-22T02:43:18.192Z,99.90
2022-08-22T02:47:03.931Z,99.90
2022-08-22T02:50:33.623Z,99.90
2022-08-22T02:54:03.442Z,99.90
2022-08-22T02:57:39.368Z,99.90
2022-08-22T03:01:09.567Z,99.90
2022-08-22T03:04:53.147Z,99.90
2022-08-22T03:08:27.395Z,99.90
2022-08-22T03:11:40.385Z,99.90
2022-08-22T03:15:07.111Z,99.90
2022-08-22T03:18:45.056Z,99.90
2022-08-22T03:22:14.868Z,99.90
2022-08-22T03:25:46.078Z,99.90
2022-08-22T03:28:59.870Z,99.90
2022-08-22T03:32:12.918Z,99.90
2022-08-22T03:35:53.913Z,99.90
2022-08-22T03:39:35.631Z,99.90
2022-08-22T03:43:38.390Z,99.90
2022-08-22T03:47:10.523Z,99.90
2022-08-22T03:50:54.521Z,99.90
2022-08-22T03:54:15.056Z,99.90
2022-08-22T03:57:41.588Z,99.90
2022-08-22T04:01:01.312Z,99.90
2022-08-22T04:04:11.407Z,99.90
2022-08-22T04:07:52.203Z,99.90
2022-08-22T04:11:13.967Z,99.90
2022-08-22T04:14:36.204Z,99.90
2022-08-22T04:18:08.364Z,99.90
2022-08-22T04:21:16.721Z,99.90
2022-08-22T04:25:08.050Z,99.90
2022-08-22T04:28:31.330Z,99.90
2022-08-22T04:32:18.976Z,99.90
2022-08-22T04:35:31.346Z,99.90
2022-08-22T04:38:59.805Z,99.90
2022-08-22T04:42:31.665Z,99.90
2022-08-22T04:45:53.121Z,99.90
2022-08-22T04:49:05.156Z,99.90
2022-08-22T04:52:41.061Z,99.90
2022-08-22T04:56:11.605Z,99.90
2022-08-22T04:59:18.563Z,99.90
2022-08-22T05:02:27.731Z,99.90
2022-08-22T05:05:38.879Z,99.90
2022-08-22T05:08:44.027Z,99.90
2022-08-22T05:11:52.532Z,99.90
2022-08-22T05:15:15.008Z,99.90
2022-08-22T05:18:32.308Z,99.90
2022-08-22T05:21:40.019Z,99.90
2022-08-22T05:24:48.625Z,99.90
2022-08-22T05:28:10.794Z,99.90
2022-08-22T05:31:40.676Z,99.90
2022-08-22T05:34:46.776Z,99.90
2022-08-22T05:37:53.755Z,99.90
2022-08-22T05:41:05.558Z,99.90
2022-08-22T05:44:22.773Z,99.90
2022-08-22T05:47:49.412Z,99.90
2022-08-22T05:50:58.658Z,99.90
2022-08-22T05:54:33.640Z,99.90
2022-08-22T05:57:47.435Z,99.90
2022-08-22T06:01:00.127Z,99.90
2022-08-22T06:04:37.825Z,99.90
2022-08-22T06:07:49.394Z,99.90
2022-08-22T06:11:01.587Z,99.90
2022-08-22T06:14:38.775Z,99.90
2022-08-22T06:17:49.992Z,99.90
2022-08-22T06:21:00.958Z,99.90
2022-08-22T06:24:05.941Z,99.90
2022-08-22T06:27:17.301Z,99.90
2022-08-22T06:30:20.596Z,99.90
2022-08-22T06:33:29.591Z,99.90
2022-08-22T06:36:34.028Z,99.90
2022-08-22T06:39:42.158Z,99.90
2022-08-22T06:42:51.898Z,99.90
2022-08-22T06:45:53.858Z,99.90
2022-08-22T06:48:57.968Z,99.90
2022-08-22T06:52:25.877Z,99.90
2022-08-22T06:55:30.219Z,99.90
2022-08-22T06:58:41.604Z,99.90
2022-08-22T07:02:15.980Z,99.90
2022-08-22T07:05:26.498Z,99.90
2022-08-22T07:08:38.471Z,99.90
2022-08-22T07:11:42.538Z,99.90
2022-08-22T07:14:50.450Z,99.90
2022-08-22T07:17:59.797Z,99.90
2022-08-22T07:21:08.193Z,99.90
2022-08-22T07:24:17.928Z,99.90
2022-08-22T07:28:00.491Z,99.90
2022-08-22T07:31:25.964Z,99.90
2022-08-22T07:35:08.846Z,99.90
2022-08-22T07:38:25.902Z,99.90
2022-08-22T07:41:46.067Z,99.90
2022-08-22T07:45:02.299Z,99.90
2022-08-22T07:48:30.602Z,99.90
2022-08-22T07:51:47.904Z,99.90
2022-08-22T07:55:23.258Z,99.90
2022-08-22T07:58:29.990Z,99.90
2022-08-22T08:01:31.348Z,99.90
2022-08-22T08:04:40.217Z,99.90
2022-08-22T08:07:46.124Z,99.90
2022-08-22T08:10:51.493Z,99.90
2022-08-22T08:14:03.956Z,99.90
2022-08-22T08:17:31.836Z,99.90
2022-08-22T08:20:36.736Z,99.90
2022-08-22T08:23:46.572Z,99.90
2022-08-22T08:27:18.575Z,99.90
2022-08-22T08:30:26.482Z,99.90
2022-08-22T08:33:32.305Z,99.90
2022-08-22T08:37:12.845Z,99.90
2022-08-22T08:40:31.972Z,99.90
2022-08-22T08:43:59.310Z,99.90
2022-08-22T08:47:21.504Z,99.90
2022-08-22T08:50:51.517Z,99.90
2022-08-22T08:54:21.502Z,99.90
2022-08-22T08:58:22.551Z,99.90
2022-08-22T09:01:35.813Z,99.90
2022-08-22T09:05:14.885Z,99.90
2022-08-22T09:08:56.337Z,99.90
2022-08-22T09:12:15.594Z,99.90
2022-08-22T09:16:07.368Z,99.90
2022-08-22T09:19:49.146Z,99.90
2022-08-22T09:22:50.764Z,99.90
2022-08-22T09:25:58.043Z,99.90
2022-08-22T09:29:28.962Z,99.90
2022-08-22T09:33:07.661Z,99.90
2022-08-22T09:36:26.127Z,99.90
2022-08-22T09:39:49.497Z,98.80
2022-08-22T09:43:29.629Z,96.20
2022-08-22T09:46:52.293Z,95.50
2022-08-22T09:50:17.111Z,91.40
2022-08-22T09:53:24.939Z,91.00
2022-08-22T09:56:53.012Z,91.00
2022-08-22T10:00:22.456Z,87.50
2022-08-22T10:04:03.520Z,87.90
2022-08-22T10:07:38.444Z,83.70
2022-08-22T10:11:24.933Z,83.90
2022-08-22T10:14:55.190Z,83.00
2022-08-22T10:18:19.281Z,82.90
2022-08-22T10:21:37.786Z,81.90
2022-08-22T10:25:13.248Z,82.10
2022-08-22T10:28:43.427Z,78.60
2022-08-22T10:32:01.368Z,78.60
2022-08-22T10:35:27.777Z,75.20
2022-08-22T10:38:49.217Z,74.20
2022-08-22T10:42:18.677Z,70.60
2022-08-22T10:45:46.876Z,72.60
2022-08-22T10:48:59.280Z,70.70
2022-08-22T10:52:19.760Z,69.30
2022-08-22T10:55:28.378Z,71.00
2022-08-22T10:58:36.987Z,69.20
2022-08-22T11:02:01.906Z,68.10
2022-08-22T11:05:50.864Z,70.30
2022-08-22T11:09:05.075Z,71.30
2022-08-22T11:12:41.666Z,70.60
2022-08-22T11:16:06.801Z,71.30
2022-08-22T11:19:41.411Z,66.30
2022-08-22T11:23:32.457Z,69.30
2022-08-22T11:26:46.848Z,63.00
2022-08-22T11:30:18.533Z,63.80
2022-08-22T11:33:53.271Z,57.80
2022-08-22T11:37:44.728Z,58.70
2022-08-22T11:41:06.232Z,60.30
2022-08-22T11:44:25.700Z,58.50
2022-08-22T11:47:36.682Z,60.20
2022-08-22T11:50:48.734Z,62.50
2022-08-22T11:54:12.164Z,62.50
2022-08-22T11:57:36.545Z,61.80
2022-08-22T12:01:17.439Z,61.90
2022-08-22T12:04:47.938Z,61.90
2022-08-22T12:08:12.084Z,57.70
2022-08-22T12:11:26.614Z,61.00
2022-08-22T12:14:43.978Z,61.30
2022-08-22T12:18:32.934Z,63.20
2022-08-22T12:21:43.158Z,63.00
2022-08-22T12:25:05.357Z,61.90
2022-08-22T12:28:56.543Z,62.30
2022-08-22T12:32:22.812Z,59.10
2022-08-22T12:35:29.926Z,57.20
2022-08-22T12:39:00.265Z,58.20
2022-08-22T12:42:51.608Z,57.90
2022-08-22T12:46:16.541Z,60.30
2022-08-22T12:50:13.217Z,59.40
2022-08-22T12:53:45.069Z,58.50
2022-08-22T12:57:27.262Z,56.50
2022-08-22T13:00:42.064Z,56.20
2022-08-22T13:03:53.563Z,56.80
2022-08-22T13:07:31.659Z,58.80
2022-08-22T13:10:52.584Z,57.10
2022-08-22T13:14:00.573Z,57.10
2022-08-22T13:17:25.382Z,59.50
2022-08-22T13:20:34.776Z,57.10
2022-08-22T13:23:42.070Z,57.90
2022-08-22T13:26:54.675Z,56.60
2022-08-22T13:29:59.955Z,58.10
2022-08-22T13:33:22.276Z,55.90
2022-08-22T13:36:24.935Z,55.80
2022-08-22T13:39:41.632Z,55.60
2022-08-22T13:42:54.195Z,54.50
2022-08-22T13:46:01.956Z,53.40
2022-08-22T13:49:10.185Z,53.70
2022-08-22T13:52:33.952Z,53.90
2022-08-22T13:55:50.457Z,52.10
2022-08-22T13:58:59.225Z,55.30
2022-08-22T14:02:15.255Z,55.40
2022-08-22T14:05:44.296Z,56.80
2022-08-22T14:08:47.223Z,55.60
2022-08-22T14:11:59.685Z,55.40
2022-08-22T14:15:07.396Z,55.10
2022-08-22T14:18:15.724Z,54.70
2022-08-22T14:21:40.959Z,52.60
2022-08-22T14:24:46.016Z,55.40
2022-08-22T14:27:50.242Z,56.50
2022-08-22T14:31:13.226Z,52.90
2022-08-22T14:34:15.962Z,50.60
2022-08-22T14:37:35.029Z,52.70
2022-08-22T14:40:42.143Z,53.60
2022-08-22T14:44:01.692Z,51.50
2022-08-22T14:47:48.211Z,52.30
2022-08-22T14:50:39.779Z,51.90
2022-08-22T14:53:44.051Z,49.00
2022-08-22T14:56:49.614Z,47.60
2022-08-22T14:59:53.009Z,48.40
2022-08-22T15:03:07.160Z,46.80
2022-08-22T15:06:32.279Z,48.30
2022-08-22T15:09:43.843Z,49.30
2022-08-22T15:12:58.795Z,48.20
2022-08-22T15:16:05.653Z,48.30
2022-08-22T15:19:33.263Z,46.30
2022-08-22T15:22:36.256Z,49.10
2022-08-22T15:25:42.633Z,50.30
2022-08-22T15:29:04.336Z,48.60
2022-08-22T15:32:06.116Z,50.30
2022-08-22T15:35:12.434Z,51.20
2022-08-22T15:38:36.436Z,53.20
2022-08-22T15:41:51.067Z,53.50
2022-08-22T15:44:55.710Z,53.00
2022-08-22T15:47:59.411Z,52.50
2022-08-22T15:51:10.524Z,52.10
2022-08-22T15:54:24.270Z,53.70
2022-08-22T15:57:40.758Z,53.60
2022-08-22T16:01:04.971Z,54.70
2022-08-22T16:05:04.100Z,54.20
2022-08-22T16:08:14.529Z,54.70
2022-08-22T16:11:33.615Z,55.20
2022-08-22T16:14:35.009Z,55.10
2022-08-22T16:17:45.239Z,55.30
2022-08-22T16:20:55.600Z,57.20
2022-08-22T16:23:56.875Z,56.70
2022-08-22T16:26:58.408Z,56.80
2022-08-22T16:30:11.287Z,56.30
2022-08-22T16:33:29.293Z,59.40
2022-08-22T16:37:02.539Z,60.70
2022-08-22T16:40:05.053Z,60.80
2022-08-22T16:43:16.522Z,61.50
2022-08-22T16:46:36.552Z,59.60
2022-08-22T16:49:50.765Z,61.40
2022-08-22T16:52:53.733Z,60.70
2022-08-22T16:56:22.756Z,61.60
2022-08-22T16:59:41.056Z,63.70
2022-08-22T17:02:56.823Z,63.20
2022-08-22T17:06:41.319Z,64.00
2022-08-22T17:10:17.641Z,65.50
2022-08-22T17:13:48.808Z,66.90
2022-08-22T17:17:05.252Z,68.00
2022-08-22T17:20:27.264Z,69.30
2022-08-22T17:24:32.004Z,71.00
2022-08-22T17:27:43.028Z,71.70
2022-08-22T17:31:31.784Z,73.10
2022-08-22T17:35:17.774Z,75.50
2022-08-22T17:39:02.738Z,76.80
2022-08-22T17:42:45.142Z,77.10
2022-08-22T17:46:04.543Z,78.10
2022-08-22T17:49:12.268Z,79.30
2022-08-22T17:52:37.671Z,80.10
2022-08-22T17:56:07.092Z,80.70
2022-08-22T17:59:27.426Z,81.10
2022-08-22T18:02:50.058Z,81.90
2022-08-22T18:06:01.623Z,83.40
2022-08-22T18:09:19.349Z,85.80
2022-08-22T18:12:39.487Z,87.70
2022-08-22T18:15:58.639Z,88.40
2022-08-22T18:19:33.304Z,89.60
2022-08-22T18:22:55.198Z,91.00
2022-08-22T18:26:36.929Z,93.70
2022-08-22T18:29:58.937Z,94.50
2022-08-22T18:33:12.235Z,95.10
2022-08-22T18:36:30.363Z,94.40
2022-08-22T18:39:53.515Z,93.60
2022-08-22T18:43:17.839Z,93.10
2022-08-22T18:46:37.646Z,92.70
2022-08-22T18:49:44.656Z,92.30
2022-08-22T18:52:46.025Z,92.20
2022-08-22T18:56:17.726Z,92.20
2022-08-22T18:59:56.461Z,92.20
2022-08-22T19:03:28.076Z,92.00
2022-08-22T19:06:51.688Z,92.10
2022-08-22T19:10:46.353Z,92.40
2022-08-22T19:14:25.106Z,92.40
2022-08-22T19:17:59.101Z,92.70
2022-08-22T19:21:44.603Z,93.00
2022-08-22T19:25:16.282Z,93.40
2022-08-22T19:28:17.347Z,93.70
2022-08-22T19:31:42.196Z,93.90
2022-08-22T19:34:47.180Z,94.00
2022-08-22T19:37:59.268Z,94.20
2022-08-22T19:41:00.423Z,94.00
2022-08-22T19:44:01.480Z,94.30
2022-08-22T19:47:13.061Z,94.60
2022-08-22T19:50:16.817Z,95.30
2022-08-22T19:53:34.892Z,95.50
2022-08-22T19:57:27.148Z,96.10
2022-08-22T20:01:00.674Z,97.20
2022-08-22T20:04:24.605Z,98.80
2022-08-22T20:07:37.192Z,99.90
2022-08-22T20:11:14.791Z,99.90
2022-08-22T20:14:30.819Z,99.90
2022-08-22T20:17:32.269Z,99.90
2022-08-22T20:20:56.299Z,99.90
2022-08-22T20:23:57.278Z,99.90
2022-08-22T20:27:17.855Z,99.90
2022-08-22T20:30:37.967Z,99.90
2022-08-22T20:33:46.146Z,99.90
2022-08-22T20:36:59.779Z,99.90
2022-08-22T20:40:55.066Z,99.90
2022-08-22T20:44:03.022Z,99.90
2022-08-22T20:47:11.281Z,99.90
2022-08-22T20:50:12.771Z,99.90
2022-08-22T20:53:20.631Z,99.90
2022-08-22T20:56:48.861Z,99.90
2022-08-22T21:00:13.508Z,99.90
2022-08-22T21:03:44.400Z,99.90
2022-08-22T21:06:45.409Z,99.90
2022-08-22T21:10:22.741Z,99.90
2022-08-22T21:13:37.805Z,99.90
2022-08-22T21:16:38.823Z,99.90
2022-08-22T21:19:39.527Z,99.90
2022-08-22T21:22:40.937Z,99.90
2022-08-22T21:26:07.678Z,99.90
2022-08-22T21:29:23.466Z,99.90
2022-08-22T21:32:42.332Z,99.90
2022-08-22T21:35:43.697Z,99.90
2022-08-22T21:39:12.768Z,99.90
2022-08-22T21:42:41.077Z,99.90
2022-08-22T21:45:44.890Z,99.90
2022-08-22T21:49:04.375Z,99.90
2022-08-22T21:52:05.390Z,99.90
2022-08-22T21:55:26.836Z,99.90
2022-08-22T21:58:36.730Z,99.90
2022-08-22T22:01:38.509Z,99.90
2022-08-22T22:04:43.440Z,99.90
2022-08-22T22:07:47.859Z,99.90
2022-08-22T22:10:51.240Z,99.90
2022-08-22T22:13:52.356Z,99.90
2022-08-22T22:16:53.601Z,99.90
2022-08-22T22:19:54.611Z,99.90
2022-08-22T22:22:55.929Z,99.90
2022-08-22T22:26:01.361Z,99.90
2022-08-22T22:29:03.936Z,99.90
2022-08-22T22:32:05.079Z,99.90
2022-08-22T22:35:07.134Z,99.90
2022-08-22T22:38:09.263Z,99.90
2022-08-22T22:41:10.388Z,99.90
2022-08-22T22:44:11.608Z,99.90
2022-08-22T22:47:13.628Z,99.90
2022-08-22T22:50:14.734Z,99.90
2022-08-22T22:53:19.371Z,99.90
2022-08-22T22:56:23.843Z,99.90
2022-08-22T22:59:24.914Z,99.90
2022-08-22T23:02:26.677Z,99.90
2022-08-22T23:05:32.168Z,99.90
2022-08-22T23:08:33.031Z,99.90
2022-08-22T23:11:34.259Z,99.90
2022-08-22T23:14:36.063Z,99.90
2022-08-22T23:17:37.761Z,99.90
2022-08-22T23:20:38.863Z,99.90
2022-08-22T23:23:40.450Z,99.90
2022-08-22T23:26:42.204Z,99.90
2022-08-22T23:29:43.508Z,99.90
2022-08-22T23:32:44.499Z,99.90
2022-08-22T23:35:45.341Z,99.90
2022-08-22T23:38:48.963Z,99.90
2022-08-22T23:41:51.039Z,99.90
2022-08-22T23:44:52.496Z,99.90
2022-08-22T23:47:53.553Z,99.90
2022-08-22T23:50:54.579Z,99.90
2022-08-22T23:53:59.369Z,99.90
2022-08-22T23:57:11.828Z,99.90
